Time;durP1;ratioP1;P1;durP2;ratioP2;P2;SDS_P1;SDS_P2;PMS_P1;PMS_P2;Temp;Humidity;BMP_temperature;BMP_pressure;BME280_temperature;BME280_humidity;BME280_pressure;Samples;Min_cycle;Max_cycle;Signal;HPM_P1;HPM_P2
2023/09/01 00:02:19;;;;;;;1.90;1.80;;;21.40;67.00;;;;;;5115751;27;43938;-70
2023/09/01 00:05:00;;;;;;;1.43;1.43;;;21.40;67.00;;;;;;5115230;27;43489;-69
2023/09/01 00:07:30;;;;;;;1.40;1.40;;;21.30;67.10;;;;;;5101877;27;45939;-70
2023/09/01 00:10:00;;;;;;;2.93;1.70;;;21.30;67.40;;;;;;5114793;27;43412;-70
2023/09/01 00:12:28;;;;;;;1.83;1.70;;;21.20;67.70;;;;;;5110789;27;43427;-70
2023/09/01 00:14:56;;;;;;;1.80;1.70;;;21.20;67.70;;;;;;5097012;27;43394;-70
2023/09/01 00:17:24;;;;;;;1.40;1.40;;;21.20;67.80;;;;;;5112449;27;43614;-69
2023/09/01 00:19:52;;;;;;;1.70;1.70;;;21.10;67.80;;;;;;5110596;27;43373;-70
2023/09/01 00:22:20;;;;;;;1.60;1.60;;;21.10;68.10;;;;;;5110551;27;43435;-70
2023/09/01 00:24:50;;;;;;;1.80;1.70;;;21.10;68.40;;;;;;5115953;27;43375;-70
2023/09/01 00:27:18;;;;;;;1.43;1.43;;;21.20;68.30;;;;;;5114501;27;44072;-70
2023/09/01 00:29:46;;;;;;;1.60;1.60;;;21.30;68.00;;;;;;5095141;27;44718;-69
2023/09/01 00:32:14;;;;;;;1.87;1.80;;;21.40;67.70;;;;;;5111233;27;43378;-71
2023/09/01 00:34:42;;;;;;;1.80;1.80;;;21.40;67.40;;;;;;5092338;27;43439;-68
2023/09/01 00:37:10;;;;;;;1.50;1.50;;;21.40;67.40;;;;;;5087162;27;45590;-69
2023/09/01 00:39:38;;;;;;;1.40;1.40;;;21.30;67.40;;;;;;5102407;27;43386;-68
2023/09/01 00:42:07;;;;;;;1.60;1.60;;;21.30;67.70;;;;;;5087897;27;43389;-68
2023/09/01 00:44:35;;;;;;;1.50;1.50;;;21.20;68.20;;;;;;5087616;27;43520;-68
2023/09/01 00:47:04;;;;;;;1.80;1.73;;;21.20;68.20;;;;;;5099620;27;45778;-68
2023/09/01 00:49:32;;;;;;;1.40;1.40;;;21.20;68.20;;;;;;5103174;27;45828;-68
2023/09/01 00:52:00;;;;;;;1.67;1.57;;;21.10;68.20;;;;;;5103994;27;43434;-68
2023/09/01 00:54:27;;;;;;;1.67;1.57;;;21.10;68.60;;;;;;5108499;27;43465;-68
2023/09/01 00:56:55;;;;;;;1.43;1.43;;;21.10;68.90;;;;;;5095959;27;46141;-68
2023/09/01 00:59:25;;;;;;;1.50;1.50;;;21.10;68.70;;;;;;5094002;27;44743;-69
2023/09/01 01:01:53;;;;;;;1.23;1.23;;;21.10;68.60;;;;;;5086753;27;43552;-68
2023/09/01 01:04:21;;;;;;;1.67;1.50;;;21.10;68.70;;;;;;5087142;27;43740;-68
2023/09/01 01:06:54;;;;;;;1.63;1.53;;;21.00;69.10;;;;;;5100090;27;43987;-68
2023/09/01 01:09:26;;;;;;;1.60;1.60;;;21.10;69.40;;;;;;5089340;27;45153;-68
2023/09/01 01:11:57;;;;;;;1.50;1.50;;;21.10;69.00;;;;;;5088078;27;43375;-68
2023/09/01 01:14:27;;;;;;;1.50;1.50;;;21.30;68.80;;;;;;5105368;27;43474;-68
2023/09/01 01:16:55;;;;;;;1.67;1.57;;;21.40;68.40;;;;;;5103542;27;45421;-68
2023/09/01 01:19:34;;;;;;;1.43;1.40;;;21.40;68.30;;;;;;5099001;27;44636;-67
2023/09/01 01:22:04;;;;;;;1.50;1.50;;;21.30;68.00;;;;;;5099991;27;43440;-69
2023/09/01 01:24:33;;;;;;;1.80;1.47;;;21.30;68.20;;;;;;5100348;27;43501;-69
2023/09/01 01:27:01;;;;;;;1.60;1.60;;;21.20;68.50;;;;;;5102201;27;43819;-69
2023/09/01 01:29:29;;;;;;;1.60;1.60;;;21.20;69.00;;;;;;5100619;27;44652;-68
2023/09/01 01:31:58;;;;;;;1.83;1.30;;;21.20;68.90;;;;;;5101028;27;43376;-69
2023/09/01 01:34:28;;;;;;;1.10;1.10;;;21.20;68.80;;;;;;5104384;27;43451;-68
2023/09/01 01:36:59;;;;;;;1.50;1.50;;;21.10;68.80;;;;;;5096090;27;46086;-68
2023/09/01 01:39:28;;;;;;;3.97;1.70;;;21.10;69.40;;;;;;5092202;27;45246;-68
2023/09/01 01:42:03;;;;;;;1.50;1.50;;;21.10;69.60;;;;;;5094432;27;43997;-72
2023/09/01 01:44:35;;;;;;;1.67;1.57;;;21.20;69.50;;;;;;5096803;27;43685;-70
2023/09/01 01:47:03;;;;;;;1.97;1.57;;;21.30;69.20;;;;;;5108906;27;45873;-70
2023/09/01 01:49:31;;;;;;;1.50;1.40;;;21.40;69.00;;;;;;5096225;27;45294;-71
2023/09/01 01:52:00;;;;;;;1.47;1.47;;;21.40;69.50;;;;;;5096692;27;43406;-70
2023/09/01 01:54:28;;;;;;;1.80;1.60;;;21.40;68.50;;;;;;5092387;27;43553;-69
2023/09/01 01:56:57;;;;;;;1.50;1.50;;;21.30;68.60;;;;;;5089019;27;45676;-69
2023/09/01 01:59:25;;;;;;;1.60;1.50;;;21.20;68.80;;;;;;5094864;27;45005;-69
2023/09/01 02:01:53;;;;;;;1.53;1.43;;;21.20;69.50;;;;;;5089362;27;43437;-69
2023/09/01 02:04:22;;;;;;;1.20;1.20;;;21.20;69.40;;;;;;5089207;27;43414;-69
2023/09/01 02:06:50;;;;;;;1.37;1.37;;;21.20;69.30;;;;;;5106708;27;43590;-69
2023/09/01 02:09:18;;;;;;;1.73;1.63;;;21.10;69.40;;;;;;5106830;27;44681;-69
2023/09/01 02:11:46;;;;;;;1.37;1.37;;;21.10;69.70;;;;;;5103533;27;43490;-69
2023/09/01 02:14:16;;;;;;;1.80;1.70;;;21.10;70.10;;;;;;5110654;27;44435;-69
2023/09/01 02:16:44;;;;;;;1.70;1.60;;;21.10;70.00;;;;;;5092902;27;45247;-69
2023/09/01 02:19:12;;;;;;;1.80;1.70;;;21.20;70.40;;;;;;5089022;27;43383;-69
2023/09/01 02:21:40;;;;;;;1.50;1.50;;;21.20;69.50;;;;;;5089331;27;43419;-69
2023/09/01 02:24:08;;;;;;;1.60;1.60;;;21.20;69.50;;;;;;5106357;27;43427;-69
2023/09/01 02:26:37;;;;;;;1.70;1.70;;;21.20;69.90;;;;;;5103881;27;45661;-68
2023/09/01 02:29:05;;;;;;;1.50;1.50;;;21.20;69.80;;;;;;5106832;27;44681;-69
2023/09/01 02:31:35;;;;;;;1.60;1.60;;;21.20;69.50;;;;;;5104658;27;43343;-69
2023/09/01 02:34:04;;;;;;;1.50;1.50;;;21.20;69.60;;;;;;5110413;27;43453;-69
2023/09/01 02:36:35;;;;;;;1.87;1.73;;;21.10;69.70;;;;;;5089480;27;45410;-69
2023/09/01 02:39:04;;;;;;;1.87;1.77;;;21.10;70.30;;;;;;5089099;27;44843;-69
2023/09/01 02:41:32;;;;;;;1.57;1.50;;;21.10;70.00;;;;;;5089107;27;43505;-69
2023/09/01 02:44:00;;;;;;;1.50;1.50;;;21.10;70.00;;;;;;5089311;27;44067;-68
2023/09/01 02:46:28;;;;;;;1.90;1.80;;;21.10;70.00;;;;;;5106630;27;43611;-69
2023/09/01 02:48:57;;;;;;;2.13;1.80;;;21.00;70.40;;;;;;5109617;27;43411;-69
2023/09/01 02:51:26;;;;;;;1.53;1.50;;;21.10;70.80;;;;;;5089189;27;43413;-69
2023/09/01 02:53:53;;;;;;;1.50;1.50;;;21.10;70.50;;;;;;5089853;27;43446;-70
2023/09/01 02:56:21;;;;;;;1.70;1.70;;;21.20;70.10;;;;;;5102067;27;45680;-72
2023/09/01 02:58:50;;;;;;;2.60;2.10;;;21.30;69.80;;;;;;5105534;27;44771;-72
2023/09/01 03:01:18;;;;;;;1.40;1.40;;;21.40;69.70;;;;;;5107857;27;43442;-72
2023/09/01 03:03:47;;;;;;;1.67;1.60;;;21.40;69.50;;;;;;5103435;27;43569;-66
2023/09/01 03:06:17;;;;;;;2.03;1.77;;;21.30;69.60;;;;;;5105835;27;45989;-66
2023/09/01 03:08:45;;;;;;;1.80;1.70;;;21.20;69.60;;;;;;5106989;27;43467;-67
2023/09/01 03:11:13;;;;;;;2.00;1.90;;;21.20;70.40;;;;;;5089562;27;43383;-66
2023/09/01 03:13:42;;;;;;;1.80;1.80;;;21.20;70.10;;;;;;5089823;27;43486;-67
2023/09/01 03:16:10;;;;;;;1.60;1.60;;;21.20;70.10;;;;;;5097271;27;46006;-66
2023/09/01 03:18:38;;;;;;;2.73;1.83;;;21.20;70.30;;;;;;5103655;27;45036;-66
2023/09/01 03:21:11;;;;;;;1.70;1.60;;;21.10;70.30;;;;;;5102429;27;43381;-66
2023/09/01 03:23:41;;;;;;;1.70;1.70;;;21.10;70.90;;;;;;5105018;27;43428;-68
2023/09/01 03:26:09;;;;;;;1.77;1.67;;;21.10;70.60;;;;;;5107907;27;44881;-66
2023/09/01 03:28:39;;;;;;;1.43;1.43;;;21.10;70.50;;;;;;5102654;27;44592;-67
2023/09/01 03:31:11;;;;;;;1.83;1.73;;;21.10;70.60;;;;;;5110820;27;43342;-66
2023/09/01 03:33:41;;;;;;;1.77;1.67;;;21.00;70.50;;;;;;5104660;27;43469;-66
2023/09/01 03:36:10;;;;;;;1.67;1.60;;;21.00;71.20;;;;;;5102397;27;44714;-66
2023/09/01 03:38:39;;;;;;;1.73;1.70;;;21.10;71.20;;;;;;5099971;27;45144;-66
2023/09/01 03:41:08;;;;;;;1.57;1.50;;;21.20;71.00;;;;;;5095039;27;43471;-66
2023/09/01 03:43:36;;;;;;;2.10;2.00;;;21.30;70.60;;;;;;5109014;27;43472;-66
2023/09/01 03:46:04;;;;;;;1.60;1.60;;;21.40;70.20;;;;;;5100007;27;45677;-66
2023/09/01 03:48:35;;;;;;;1.30;1.30;;;21.50;70.20;;;;;;5110138;27;43408;-66
2023/09/01 03:51:08;;;;;;;1.40;1.40;;;21.40;69.70;;;;;;5105015;27;43408;-68
2023/09/01 03:53:38;;;;;;;1.67;1.57;;;21.40;69.80;;;;;;5091787;27;43457;-66
2023/09/01 03:56:09;;;;;;;1.53;1.53;;;21.30;70.00;;;;;;5091554;27;44706;-65
2023/09/01 03:58:37;;;;;;;1.50;1.50;;;21.30;70.70;;;;;;5106771;27;44006;-66
2023/09/01 04:01:11;;;;;;;1.50;1.50;;;21.20;70.50;;;;;;5109371;27;43382;-66
2023/09/01 04:03:39;;;;;;;1.27;1.27;;;21.20;70.40;;;;;;5101214;27;43447;-72
2023/09/01 04:06:08;;;;;;;1.90;1.80;;;21.20;70.50;;;;;;5097377;27;44665;-71
2023/09/01 04:08:37;;;;;;;1.80;1.70;;;21.20;70.80;;;;;;5086967;27;44712;-71
2023/09/01 04:11:06;;;;;;;1.70;1.60;;;21.20;71.20;;;;;;5107272;27;43920;-71
2023/09/01 04:13:35;;;;;;;1.60;1.60;;;21.20;70.90;;;;;;5106361;27;43364;-65
2023/09/01 04:16:03;;;;;;;1.50;1.50;;;21.20;70.90;;;;;;5101012;27;45350;-67
2023/09/01 04:18:32;;;;;;;1.70;1.70;;;21.10;70.80;;;;;;5107337;27;44963;-69
2023/09/01 04:21:00;;;;;;;1.60;1.60;;;21.10;71.10;;;;;;5101868;27;43962;-66
2023/09/01 04:23:28;;;;;;;2.20;2.10;;;21.10;71.60;;;;;;5104007;27;43448;-67
2023/09/01 04:25:58;;;;;;;5.43;2.50;;;21.20;71.40;;;;;;5103690;27;45714;-66
2023/09/01 04:28:29;;;;;;;3.73;2.20;;;21.30;71.10;;;;;;5087805;27;43485;-67
2023/09/01 04:30:59;;;;;;;2.97;2.17;;;21.40;70.60;;;;;;5088796;27;43344;-66
2023/09/01 04:33:30;;;;;;;4.30;2.10;;;21.50;70.40;;;;;;5095360;27;43510;-66
2023/09/01 04:35:59;;;;;;;4.43;2.10;;;21.50;70.20;;;;;;5105442;27;43880;-66
2023/09/01 04:38:27;;;;;;;1.90;1.80;;;21.40;70.20;;;;;;5108761;27;43499;-66
2023/09/01 04:40:56;;;;;;;2.70;2.10;;;21.40;70.30;;;;;;5095938;27;43478;-66
2023/09/01 04:43:25;;;;;;;2.50;2.30;;;21.30;70.90;;;;;;5089317;27;43573;-67
2023/09/01 04:45:53;;;;;;;2.37;2.17;;;21.30;71.00;;;;;;5098746;27;44039;-66
2023/09/01 04:48:24;;;;;;;1.90;1.80;;;21.20;70.70;;;;;;5097160;27;43425;-66
2023/09/01 04:50:52;;;;;;;1.97;1.87;;;21.20;70.80;;;;;;5094959;27;43523;-67
2023/09/01 04:53:21;;;;;;;2.30;1.80;;;21.20;71.00;;;;;;5094771;27;43602;-65
2023/09/01 04:55:52;;;;;;;2.00;1.90;;;21.20;71.60;;;;;;5092520;27;45464;-66
2023/09/01 04:58:20;;;;;;;1.90;1.80;;;21.20;71.40;;;;;;5102213;27;43437;-65
2023/09/01 05:00:48;;;;;;;1.80;1.70;;;21.20;71.30;;;;;;5108118;27;43389;-66
2023/09/01 05:03:16;;;;;;;1.93;1.80;;;21.10;71.20;;;;;;5103992;27;43593;-66
2023/09/01 05:05:46;;;;;;;5.87;2.17;;;21.10;71.40;;;;;;5102575;27;45988;-66
2023/09/01 05:08:15;;;;;;;1.90;1.80;;;21.10;72.00;;;;;;5106716;27;43715;-65
2023/09/01 05:10:43;;;;;;;2.00;1.87;;;21.20;71.90;;;;;;5100784;27;43405;-65
2023/09/01 05:13:11;;;;;;;1.80;1.70;;;21.30;71.60;;;;;;5103732;27;43398;-72
2023/09/01 05:15:39;;;;;;;1.57;1.57;;;21.40;71.10;;;;;;5097601;27;44896;-72
2023/09/01 05:18:07;;;;;;;1.67;1.67;;;21.50;70.90;;;;;;5108744;27;44678;-72
2023/09/01 05:20:35;;;;;;;2.00;1.80;;;21.50;70.70;;;;;;5106679;27;43485;-72
2023/09/01 05:23:05;;;;;;;1.67;1.60;;;21.40;70.50;;;;;;5097274;27;43392;-72
2023/09/01 05:25:33;;;;;;;1.63;1.63;;;21.40;70.70;;;;;;5096431;27;44712;-68
2023/09/01 05:28:02;;;;;;;1.57;1.57;;;21.30;71.20;;;;;;5095412;27;44776;-69
2023/09/01 05:30:30;;;;;;;1.77;1.67;;;21.30;71.40;;;;;;5096667;27;43801;-69
2023/09/01 05:33:04;;;;;;;1.50;1.50;;;21.20;71.10;;;;;;5095681;27;43501;-69
2023/09/01 05:35:33;;;;;;;1.73;1.63;;;21.20;71.10;;;;;;5093087;27;46307;-69
2023/09/01 05:38:02;;;;;;;2.13;1.60;;;21.20;71.20;;;;;;5091570;27;43502;-69
2023/09/01 05:40:31;;;;;;;1.60;1.60;;;21.20;71.90;;;;;;5090931;27;43398;-68
2023/09/01 05:42:59;;;;;;;3.60;1.60;;;21.20;71.70;;;;;;5107516;27;44473;-68
2023/09/01 05:45:28;;;;;;;1.63;1.53;;;21.20;71.50;;;;;;5098501;27;45868;-69
2023/09/01 05:47:57;;;;;;;1.40;1.40;;;21.20;71.50;;;;;;5108344;27;44597;-70
2023/09/01 05:50:26;;;;;;;1.60;1.60;;;21.10;72.30;;;;;;5106964;27;43956;-69
2023/09/01 05:52:56;;;;;;;1.60;1.60;;;21.10;72.20;;;;;;5094957;27;43536;-69
2023/09/01 05:55:25;;;;;;;1.77;1.67;;;21.20;72.10;;;;;;5104705;27;43848;-67
2023/09/01 05:57:54;;;;;;;1.67;1.60;;;21.30;71.80;;;;;;5102028;27;43503;-68
2023/09/01 06:00:23;;;;;;;1.43;1.43;;;21.40;71.30;;;;;;5110540;27;43339;-68
2023/09/01 06:02:52;;;;;;;2.47;1.87;;;21.40;71.00;;;;;;5110125;27;43447;-68
2023/09/01 06:05:20;;;;;;;1.87;1.77;;;21.50;70.90;;;;;;5105199;27;43993;-67
2023/09/01 06:07:48;;;;;;;1.70;1.60;;;21.40;70.80;;;;;;5110573;27;43496;-67
2023/09/01 06:10:16;;;;;;;1.60;1.53;;;21.30;70.90;;;;;;5103137;27;43977;-69
2023/09/01 06:12:44;;;;;;;1.67;1.60;;;21.30;71.40;;;;;;5103897;27;44187;-69
2023/09/01 06:15:14;;;;;;;1.57;1.57;;;21.30;71.70;;;;;;5099998;27;45782;-69
2023/09/01 06:17:42;;;;;;;2.07;1.63;;;21.20;71.40;;;;;;5103400;27;44851;-69
2023/09/01 06:20:14;;;;;;;1.80;1.70;;;21.20;71.50;;;;;;5098395;27;43410;-71
2023/09/01 06:22:47;;;;;;;1.50;1.50;;;21.20;71.60;;;;;;5108229;27;43431;-70
2023/09/01 06:25:15;;;;;;;2.10;1.80;;;21.10;72.20;;;;;;5100861;27;45652;-70
2023/09/01 06:27:43;;;;;;;1.50;1.50;;;21.10;72.00;;;;;;5108138;27;44580;-70
2023/09/01 06:30:12;;;;;;;1.70;1.70;;;21.10;72.50;;;;;;5110168;27;43434;-70
2023/09/01 06:32:41;;;;;;;2.03;1.90;;;21.10;71.90;;;;;;5111343;27;43382;-70
2023/09/01 06:35:09;;;;;;;2.00;1.90;;;21.10;72.00;;;;;;5109784;27;43678;-72
2023/09/01 06:37:37;;;;;;;1.70;1.67;;;21.10;72.60;;;;;;5096763;27;45015;-71
2023/09/01 06:40:06;;;;;;;1.53;1.53;;;21.10;72.50;;;;;;5103855;27;43952;-73
2023/09/01 06:42:34;;;;;;;1.50;1.50;;;21.20;72.20;;;;;;5106767;27;43946;-72
2023/09/01 06:45:03;;;;;;;1.73;1.57;;;21.30;71.70;;;;;;5110115;27;43599;-72
2023/09/01 06:47:31;;;;;;;1.63;1.63;;;21.40;71.40;;;;;;5104216;27;43538;-72
2023/09/01 06:50:00;;;;;;;1.80;1.80;;;21.50;71.30;;;;;;5104292;27;43387;-72
2023/09/01 06:52:28;;;;;;;1.37;1.37;;;21.40;71.10;;;;;;5103629;27;43447;-72
2023/09/01 06:54:56;;;;;;;2.00;1.80;;;21.40;71.20;;;;;;5109362;27;43599;-72
2023/09/01 06:57:24;;;;;;;1.60;1.60;;;21.30;71.70;;;;;;5109553;27;43395;-72
2023/09/01 06:59:52;;;;;;;2.07;1.80;;;21.30;72.00;;;;;;5103092;27;43879;-73
2023/09/01 07:02:20;;;;;;;1.83;1.83;;;21.20;71.70;;;;;;5106583;27;43970;-72
2023/09/01 07:04:49;;;;;;;1.60;1.50;;;21.20;71.70;;;;;;5093506;27;45451;-72
2023/09/01 07:07:19;;;;;;;1.63;1.53;;;21.20;71.80;;;;;;5103190;27;43570;-72
2023/09/01 07:09:47;;;;;;;1.90;1.80;;;21.20;72.40;;;;;;5109712;27;43413;-70
2023/09/01 07:12:15;;;;;;;1.73;1.67;;;21.20;72.60;;;;;;5109265;27;43359;-72
2023/09/01 07:14:43;;;;;;;2.07;1.87;;;21.20;72.30;;;;;;5109256;27;43611;-73
2023/09/01 07:17:12;;;;;;;1.80;1.80;;;21.30;72.10;;;;;;5105808;27;44763;-72
2023/09/01 07:19:40;;;;;;;1.97;1.87;;;21.30;71.70;;;;;;5103067;27;43367;-72
2023/09/01 07:22:08;;;;;;;1.90;1.80;;;21.30;71.70;;;;;;5093981;27;43492;-72
2023/09/01 07:24:37;;;;;;;1.77;1.67;;;21.30;72.30;;;;;;5108241;27;43623;-73
2023/09/01 07:27:06;;;;;;;1.77;1.67;;;21.20;72.20;;;;;;5107046;27;43450;-72
2023/09/01 07:29:34;;;;;;;1.50;1.50;;;21.20;71.90;;;;;;5101915;27;43499;-72
2023/09/01 07:32:03;;;;;;;1.87;1.73;;;21.20;71.90;;;;;;5108143;27;43436;-73
2023/09/01 07:34:31;;;;;;;1.73;1.73;;;21.20;72.00;;;;;;5094745;27;45639;-72
2023/09/01 07:36:59;;;;;;;1.73;1.70;;;21.20;72.70;;;;;;5104819;27;43508;-72
2023/09/01 07:39:27;;;;;;;1.70;1.70;;;21.20;72.70;;;;;;5107260;27;44048;-73
2023/09/01 07:41:57;;;;;;;2.30;2.20;;;21.20;72.30;;;;;;5099858;27;43444;-72
2023/09/01 07:44:25;;;;;;;1.70;1.70;;;21.30;72.80;;;;;;5095807;27;46000;-70
2023/09/01 07:46:53;;;;;;;1.90;1.90;;;21.30;71.90;;;;;;5113576;27;43395;-70
2023/09/01 07:49:21;;;;;;;1.80;1.70;;;21.30;72.30;;;;;;5112430;27;43364;-71
2023/09/01 07:51:49;;;;;;;1.67;1.67;;;21.20;72.40;;;;;;5100589;27;43411;-71
2023/09/01 07:54:17;;;;;;;1.70;1.70;;;21.20;72.00;;;;;;5113063;27;43939;-71
2023/09/01 07:56:45;;;;;;;1.60;1.60;;;21.20;72.00;;;;;;5104381;27;44801;-70
2023/09/01 07:59:14;;;;;;;1.80;1.80;;;21.20;72.10;;;;;;5107048;27;43331;-71
2023/09/01 08:01:45;;;;;;;2.00;1.90;;;21.20;72.60;;;;;;5112266;27;43494;-70
2023/09/01 08:04:13;;;;;;;2.10;2.00;;;21.10;72.80;;;;;;5112929;27;43586;-71
2023/09/01 08:06:41;;;;;;;1.70;1.60;;;21.10;72.40;;;;;;5100803;27;44919;-70
2023/09/01 08:09:11;;;;;;;1.80;1.80;;;21.10;72.30;;;;;;5099903;27;43360;-70
2023/09/01 08:11:39;;;;;;;1.70;1.70;;;21.10;72.40;;;;;;5100330;27;43433;-70
2023/09/01 08:14:07;;;;;;;2.07;1.97;;;21.10;73.10;;;;;;5107430;27;43602;-70
2023/09/01 08:16:37;;;;;;;1.60;1.60;;;21.10;73.30;;;;;;5108090;27;43351;-70
2023/09/01 08:19:05;;;;;;;1.80;1.80;;;21.20;73.60;;;;;;5098125;27;43416;-69
2023/09/01 08:21:33;;;;;;;1.70;1.70;;;21.30;72.40;;;;;;5110238;27;43429;-69
2023/09/01 08:24:02;;;;;;;2.00;1.90;;;21.40;72.10;;;;;;5110289;27;43751;-69
2023/09/01 08:26:31;;;;;;;2.00;1.90;;;21.40;71.90;;;;;;5108215;27;44293;-68
2023/09/01 08:28:59;;;;;;;1.90;1.80;;;21.40;71.70;;;;;;5096227;27;43468;-69
2023/09/01 08:31:27;;;;;;;1.70;1.70;;;21.30;71.80;;;;;;5110688;27;43485;-69
2023/09/01 08:33:57;;;;;;;1.80;1.80;;;21.30;72.00;;;;;;5112780;27;43926;-71
2023/09/01 08:36:26;;;;;;;1.80;1.70;;;21.20;72.70;;;;;;5109236;27;43528;-69
2023/09/01 08:38:54;;;;;;;1.83;1.83;;;21.20;72.40;;;;;;5112353;27;43413;-70
2023/09/01 08:41:23;;;;;;;1.50;1.50;;;21.20;72.40;;;;;;5103489;27;43420;-70
2023/09/01 08:43:51;;;;;;;1.60;1.50;;;21.20;72.50;;;;;;5115575;27;43607;-69
2023/09/01 08:46:19;;;;;;;1.67;1.57;;;21.10;72.90;;;;;;5113232;27;43364;-71
2023/09/01 08:48:47;;;;;;;1.50;1.50;;;21.10;73.20;;;;;;5110636;27;43481;-71
2023/09/01 08:51:17;;;;;;;1.70;1.70;;;21.10;72.80;;;;;;5116126;27;43444;-69
2023/09/01 08:53:46;;;;;;;2.47;1.77;;;21.10;72.70;;;;;;5115358;27;44025;-70
2023/09/01 08:56:14;;;;;;;1.70;1.60;;;21.10;73.50;;;;;;5102422;27;44908;-70
2023/09/01 08:58:44;;;;;;;1.67;1.63;;;21.10;73.50;;;;;;5110483;27;43325;-70
2023/09/01 09:01:13;;;;;;;1.70;1.70;;;21.10;73.60;;;;;;5111950;27;43492;-71
2023/09/01 09:03:41;;;;;;;1.73;1.63;;;21.20;73.50;;;;;;5115980;27;43992;-70
2023/09/01 09:06:13;;;;;;;1.50;1.50;;;21.30;73.10;;;;;;5117183;27;43420;-70
2023/09/01 09:08:42;;;;;;;1.83;1.60;;;21.40;72.60;;;;;;5118389;27;43431;-71
2023/09/01 09:11:14;;;;;;;1.60;1.60;;;21.40;72.30;;;;;;5118845;27;43379;-70
2023/09/01 09:13:42;;;;;;;1.43;1.43;;;21.40;72.00;;;;;;5114262;27;43956;-71
2023/09/01 09:16:21;;;;;;;1.57;1.57;;;21.40;72.10;;;;;;5113478;27;43427;-70
2023/09/01 09:18:49;;;;;;;1.50;1.50;;;21.30;72.20;;;;;;5111504;27;43453;-69
2023/09/01 09:21:27;;;;;;;1.40;1.40;;;21.30;73.10;;;;;;5102388;27;43532;-69
2023/09/01 09:23:57;;;;;;;1.60;1.60;;;21.20;73.00;;;;;;5117994;27;43606;-70
2023/09/01 09:26:46;;;;;;;1.37;1.37;;;21.20;72.80;;;;;;5116740;27;43423;-70
2023/09/01 09:29:15;;;;;;;1.30;1.30;;;21.20;72.90;;;;;;5098983;27;43386;-70
2023/09/01 09:31:44;;;;;;;1.37;1.37;;;21.10;73.00;;;;;;5113114;27;43616;-69
2023/09/01 09:34:14;;;;;;;1.53;1.43;;;21.10;73.70;;;;;;5113583;27;43825;-70
2023/09/01 09:36:42;;;;;;;1.40;1.30;;;21.10;73.40;;;;;;5109761;27;43449;-71
2023/09/01 09:39:25;;;;;;;1.40;1.40;;;21.10;73.20;;;;;;5096870;27;43503;-69
2023/09/01 09:41:53;;;;;;;1.30;1.30;;;21.10;73.20;;;;;;5116719;27;43454;-70
2023/09/01 09:44:26;;;;;;;1.23;1.23;;;21.10;73.80;;;;;;5116846;27;43824;-71
2023/09/01 09:46:54;;;;;;;1.10;1.10;;;21.10;74.00;;;;;;5110028;27;45111;-71
2023/09/01 09:49:23;;;;;;;1.63;1.57;;;21.20;73.90;;;;;;5104093;27;44065;-71
2023/09/01 09:51:51;;;;;;;1.40;1.40;;;21.30;73.50;;;;;;5112621;27;43477;-71
2023/09/01 09:54:21;;;;;;;3.43;1.50;;;21.40;73.00;;;;;;5099755;27;45661;-67
2023/09/01 09:56:51;;;;;;;1.60;1.47;;;21.50;73.00;;;;;;5096723;27;45164;-70
2023/09/01 09:59:22;;;;;;;1.37;1.37;;;21.40;72.50;;;;;;5096098;27;43469;-67
2023/09/01 10:01:50;;;;;;;1.30;1.30;;;21.40;72.50;;;;;;5111472;27;43355;-66
2023/09/01 10:04:18;;;;;;;1.67;1.57;;;21.30;72.70;;;;;;5095718;27;47451;-70
2023/09/01 10:06:46;;;;;;;1.60;1.50;;;21.30;73.20;;;;;;5109209;27;43422;-70
2023/09/01 10:09:17;;;;;;;1.43;1.43;;;21.20;73.00;;;;;;5114231;27;43456;-70
2023/09/01 10:11:46;;;;;;;1.20;1.20;;;21.20;73.00;;;;;;5114846;27;43476;-70
2023/09/01 10:14:16;;;;;;;1.30;1.30;;;21.20;73.00;;;;;;5115961;27;43937;-70
2023/09/01 10:16:44;;;;;;;1.87;1.33;;;21.20;73.30;;;;;;5116379;27;43968;-69
2023/09/01 10:19:13;;;;;;;1.40;1.40;;;21.20;73.70;;;;;;5116859;27;43345;-70
2023/09/01 10:21:42;;;;;;;1.37;1.37;;;21.20;73.50;;;;;;5116704;27;43455;-70
2023/09/01 10:24:14;;;;;;;1.13;1.13;;;21.20;73.10;;;;;;5115598;27;43612;-70
2023/09/01 10:26:43;;;;;;;1.30;1.30;;;21.30;73.00;;;;;;5116209;27;44265;-70
2023/09/01 10:29:12;;;;;;;1.40;1.40;;;21.30;73.50;;;;;;5116466;27;43526;-69
2023/09/01 10:31:45;;;;;;;1.13;1.13;;;21.30;73.10;;;;;;5114621;27;43466;-69
2023/09/01 10:34:13;;;;;;;1.30;1.30;;;21.20;73.30;;;;;;5110997;27;43848;-70
2023/09/01 10:36:44;;;;;;;1.10;1.10;;;21.20;73.10;;;;;;5100389;27;44695;-70
2023/09/01 10:39:22;;;;;;;1.20;1.20;;;21.20;73.00;;;;;;5113860;27;43365;-70
2023/09/01 10:42:00;;;;;;;1.20;1.20;;;21.20;73.00;;;;;;5106008;27;43512;-70
2023/09/01 10:45:07;;;;;;;2.03;1.30;;;21.20;73.40;;;;;;5104871;27;43595;-69
2023/09/01 10:47:52;;;;;;;1.60;1.20;;;21.20;73.60;;;;;;5098228;27;43952;-71
2023/09/01 10:50:20;;;;;;;1.17;1.17;;;21.20;73.30;;;;;;5114737;27;43369;-71
2023/09/01 10:53:18;;;;;;;1.07;1.03;;;21.20;73.30;;;;;;5099451;27;43481;-71
2023/09/01 10:56:05;;;;;;;1.23;1.23;;;21.10;73.30;;;;;;5096306;27;45722;-71
2023/09/01 10:58:41;;;;;;;1.23;1.10;;;21.10;73.70;;;;;;5115776;27;44856;-70
2023/09/01 11:01:24;;;;;;;1.00;1.00;;;21.20;73.60;;;;;;5109190;27;43445;-71
2023/09/01 11:03:54;;;;;;;1.30;1.30;;;21.20;73.10;;;;;;5106386;27;43524;-69
2023/09/01 11:06:23;;;;;;;1.07;1.07;;;21.30;72.90;;;;;;5106615;27;44592;-69
2023/09/01 11:08:58;;;;;;;1.27;1.27;;;21.30;72.80;;;;;;5106508;27;43453;-69
2023/09/01 11:11:27;;;;;;;1.20;1.20;;;21.20;73.10;;;;;;5109549;27;43505;-69
2023/09/01 11:13:55;;;;;;;1.10;1.10;;;21.20;73.10;;;;;;5096783;27;43505;-71
2023/09/01 11:16:23;;;;;;;1.27;1.20;;;21.20;72.90;;;;;;5105331;27;45716;-71
2023/09/01 11:19:01;;;;;;;1.17;1.17;;;21.20;72.80;;;;;;5110005;27;43378;-71
2023/09/01 11:21:29;;;;;;;1.07;1.07;;;21.20;72.80;;;;;;5110417;27;43428;-71
2023/09/01 11:23:58;;;;;;;1.13;1.13;;;21.20;74.00;;;;;;5111889;27;43360;-71
2023/09/01 11:26:26;;;;;;;1.20;1.20;;;21.20;73.30;;;;;;5115266;27;43683;-71
2023/09/01 11:28:56;;;;;;;2.10;1.23;;;21.20;73.00;;;;;;5114272;27;43483;-70
2023/09/01 11:31:25;;;;;;;1.00;1.00;;;21.20;73.00;;;;;;5115996;27;43361;-69
2023/09/01 11:33:53;;;;;;;1.73;1.20;;;21.10;73.00;;;;;;5097809;27;43608;-70
2023/09/01 11:36:23;;;;;;;1.43;1.20;;;21.10;73.40;;;;;;5099998;27;45688;-69
2023/09/01 11:38:52;;;;;;;1.50;1.40;;;21.10;73.30;;;;;;5106178;27;43890;-70
2023/09/01 11:41:20;;;;;;;1.40;1.40;;;21.20;73.00;;;;;;5108381;27;43437;-71
2023/09/01 11:43:49;;;;;;;1.13;1.13;;;21.30;72.60;;;;;;5115232;27;43513;-70
2023/09/01 11:46:19;;;;;;;1.07;1.07;;;21.40;72.20;;;;;;5115345;27;43602;-70
2023/09/01 11:48:48;;;;;;;1.10;1.10;;;21.50;72.10;;;;;;5113827;27;43548;-70
2023/09/01 11:51:16;;;;;;;1.33;0.90;;;21.40;71.90;;;;;;5113254;27;43497;-70
2023/09/01 11:53:52;;;;;;;1.07;1.00;;;21.40;72.20;;;;;;5112266;27;43473;-70
2023/09/01 11:56:22;;;;;;;1.50;1.27;;;21.30;72.40;;;;;;5108818;27;44058;-70
2023/09/01 11:58:51;;;;;;;1.00;1.00;;;21.20;73.30;;;;;;5113068;27;43362;-71
2023/09/01 12:01:19;;;;;;;1.03;1.03;;;21.20;72.50;;;;;;5116056;27;43381;-71
2023/09/01 12:03:47;;;;;;;1.17;1.13;;;21.20;72.60;;;;;;5110873;27;43403;-70
2023/09/01 12:06:16;;;;;;;1.40;1.40;;;21.20;72.70;;;;;;5100595;27;45309;-70
2023/09/01 12:08:46;;;;;;;1.33;1.33;;;21.10;72.90;;;;;;5095614;27;44930;-71
2023/09/01 12:11:14;;;;;;;1.20;1.20;;;21.10;72.90;;;;;;5103181;27;43374;-70
2023/09/01 12:13:43;;;;;;;1.13;1.13;;;21.10;72.80;;;;;;5112942;27;43841;-69
2023/09/01 12:16:19;;;;;;;1.10;1.10;;;21.10;72.90;;;;;;5098743;27;45696;-69
2023/09/01 12:18:47;;;;;;;1.07;1.07;;;21.10;73.10;;;;;;5089788;27;44897;-69
2023/09/01 12:21:15;;;;;;;1.33;1.33;;;21.10;73.30;;;;;;5108542;27;43508;-69
2023/09/01 12:23:43;;;;;;;1.00;1.00;;;21.10;73.00;;;;;;5107113;27;43424;-72
2023/09/01 12:26:15;;;;;;;2.00;1.10;;;21.20;72.70;;;;;;5104749;27;43600;-72
2023/09/01 12:28:43;;;;;;;1.10;1.10;;;21.40;72.30;;;;;;5104016;27;43501;-70
2023/09/01 12:31:12;;;;;;;1.00;1.00;;;21.40;72.00;;;;;;5106755;27;43444;-72
2023/09/01 12:33:40;;;;;;;1.10;1.10;;;21.40;71.90;;;;;;5109163;27;43396;-72
2023/09/01 12:36:09;;;;;;;1.10;1.10;;;21.30;71.90;;;;;;5101793;27;45782;-71
2023/09/01 12:38:37;;;;;;;1.00;1.00;;;21.30;72.10;;;;;;5108589;27;43404;-72
2023/09/01 12:41:05;;;;;;;1.00;1.00;;;21.20;72.50;;;;;;5102547;27;43456;-72
2023/09/01 12:43:38;;;;;;;1.00;1.00;;;21.20;72.70;;;;;;5098672;27;43357;-72
2023/09/01 12:46:06;;;;;;;1.10;1.10;;;21.20;72.70;;;;;;5108272;27;43582;-72
2023/09/01 12:48:35;;;;;;;1.13;1.13;;;21.20;72.70;;;;;;5094760;27;44508;-72
2023/09/01 12:51:05;;;;;;;1.20;1.20;;;21.10;72.70;;;;;;5105716;27;43464;-73
2023/09/01 12:53:33;;;;;;;1.00;1.00;;;21.10;73.20;;;;;;5108806;27;44129;-72
2023/09/01 12:56:01;;;;;;;1.00;1.00;;;21.10;73.30;;;;;;5092973;27;46150;-72
2023/09/01 12:58:31;;;;;;;1.20;1.20;;;21.20;73.10;;;;;;5106116;27;43402;-72
2023/09/01 13:01:04;;;;;;;1.10;1.10;;;21.20;72.70;;;;;;5093798;27;43426;-71